• Join FlightAware (Why Join?)
  • Login
  • US Flag 
10:09AM EDT


 

Airport Tracker/Info


-or-


 

Live Flight TrackerFlight Track Log ✈ UAL3740 ✈ 22-Feb-2014 ✈ KORD - KCMH

Flight Track Log - Related Links

Times and Time Zones

All times are in EST time to prevent confusion due to time zone crossing. See the UAL3740 flight status page for this flight to view local times or setup timezone preferences in your user account.

Time Position Orientation Groundspeed Altitude Reporting Facility
EST Latitude Longitude Course Direction KTS MPH feet Rate Location/Type
02:43PM 41.9333 -87.9000 90° East 177 204 2,600  Level Chicago TRACON
02:44PM 41.8833 -87.8333 135° Southeast 223 257 4,900 1,980 Climbing Chicago TRACON
02:45PM 41.8408 -87.7647 130° Southeast 273 314 6,500 2,100 Climbing Chicago Center
02:46PM 41.9412 -87.2345 96° East  Level FlightAware Approximate
02:46PM 41.8078 -87.6625 113° Southeast 321 369 9,100  Level Chicago Center
02:47PM 41.9333 -87.0683 90° East  Level FlightAware Approximate
02:47PM 41.8383 -87.5350 72° East 335 386 12,000  Level Chicago Center
02:48PM 41.9333 -86.9349 90° East  Level FlightAware Approximate
02:48PM 41.8675 -87.4083 73° East 354 407 13,900  Level Chicago Center
02:49PM 41.8992 -87.2694 73° East 386 444 16,100 2,040 Climbing Chicago Center
02:50PM 41.9319 -87.1236 73° East 401 461 18,200 1,860 Climbing Chicago Center
02:51PM 41.9461 -86.9525 84° East 424 488 20,000 1,740 Climbing Chicago Center
02:52PM 41.9494 -86.7881 88° East 437 503 21,900 1,620 Climbing Chicago Center
02:53PM 41.9508 -86.6358 89° East 449 517 23,400 1,440 Climbing Chicago Center
02:54PM 41.9536 -86.4628 89° East 462 532 24,900 1,440 Climbing Chicago Center
02:55PM 41.9544 -86.2444 90° East 486 559 26,400 1,020 Climbing Chicago Center
02:56PM 41.9128 -86.0697 108° East 490 564 27,000 360 Climbing Chicago Center
02:57PM 41.8594 -85.8908 112° Southeast 513 590 27,200 900 Climbing Chicago Center
02:58PM 41.8053 -85.7078 112° Southeast 524 603 28,900 1,200 Climbing Chicago Center
02:59PM 41.7114 -85.5764 134° Southeast 496 571 29,700 840 Climbing Chicago Center
03:00PM 41.5875 -85.4625 145° Southeast 486 559 30,700 600 Climbing Chicago Center
03:01PM 41.4750 -85.3550 144° Southeast 491 565 31,000 -120 Climbing Chicago Center
03:02PM 41.3583 -85.2450 145° Southeast 509 586 30,500 -1,260 Descending Chicago Center
03:03PM 41.2442 -85.1375 145° Southeast 509 586 28,400 -2,040 Descending Chicago Center
03:04PM 41.1369 -85.0381 145° Southeast 485 558 26,400 -1,980 Descending Chicago Center
03:05PM 41.0372 -84.9467 145° Southeast 449 517 24,400 -1,680 Descending Chicago Center
03:06PM 40.9169 -84.8367 145° Southeast 440 506 23,000 -720 Descending Chicago Center
03:07PM 40.8350 -84.7125 131° Southeast 478 550 23,000  Level Chicago Center
03:08PM 40.7842 -84.5508 113° Southeast 484 557 23,000  Level Chicago Center
03:09PM 40.7358 -84.3972 113° Southeast 465 535 23,000 -300 Level Chicago Center
03:10PM 40.6875 -84.2419 112° Southeast 459 528 22,400 -1,440 Descending Chicago Center
03:12PM 40.6389 -84.0886 113° Southeast 458 527 20,100 -2,100 Descending Chicago Center
03:13PM 40.5956 -83.9517 113° Southeast 421 484 18,100 -2,040 Descending Chicago Center
03:14PM 40.5450 -83.7950 113° Southeast 394 453 16,000 -1,860 Descending Chicago Center
03:15PM 40.5008 -83.6592 113° Southeast 372 428 14,200 -1,620 Descending Indianapolis Center
03:15PM 40.4925 -83.6322 112° Southeast 374 430 13,700 -1,680 Descending Indianapolis Center
03:16PM 40.4622 -83.5397 113° Southeast 356 410 12,500 -1,560 Descending Indianapolis Center
03:16PM 40.4550 -83.5125 109° East 361 415 12,100 -1,380 Descending Indianapolis Center
03:17PM 40.4250 -83.4261 114° Southeast 337 388 11,100 -1,140 Descending Indianapolis Center
03:17PM 40.4194 -83.4003 106° East 341 392 11,000 -420 Descending Indianapolis Center
03:18PM 40.3844 -83.3258 122° Southeast 311 358 10,700 -720 Descending Indianapolis Center
03:18PM 40.3739 -83.3022 120° Southeast 321 369 10,300 -600 Descending Indianapolis Center
03:19PM 40.3336 -83.2214 123° Southeast 316 364 10,100 -420 Descending Indianapolis Center
03:19PM 40.3183 -83.1850 119° Southeast 320 368 9,900  Descending Indianapolis Center
03:20PM 40.2931 -83.1406 127° Southeast 313 360 10,100 180 Climbing Indianapolis Center
03:20PM 40.2706 -83.0897 120° Southeast 318 366 10,100 -600 Level Indianapolis Center
03:21PM 40.2419 -83.0389 126° Southeast 310 357 9,500 -1,380 Descending Indianapolis Center
03:21PM 40.2236 -82.9956 119° Southeast 314 361 8,700 -1,620 Descending Indianapolis Center
03:22PM 40.1981 -82.9469 125° Southeast 297 342 7,900 -1,620 Descending Indianapolis Center
03:22PM 40.1783 -82.9072 123° Southeast 300 345 7,100 -1,500 Descending Indianapolis Center
03:23PM 40.1514 -82.8628 128° Southeast 279 321 6,400 -1,020 Descending Indianapolis Center
03:23PM 40.1333 -82.8269 123° Southeast 284 327 6,100 -540 Descending Indianapolis Center
03:24PM 40.1103 -82.7878 128° Southeast 241 277 5,900 -900 Descending Indianapolis Center
03:24PM 40.0942 -82.7558 123° Southeast 257 296 5,200 -1,380 Descending Indianapolis Center
03:25PM 40.0683 -82.7183 132° Southeast 240 276 4,500 -1,260 Descending Indianapolis Center
03:25PM 40.0417 -82.7072 162° South 255 293 3,900 -1,500 Descending Indianapolis Center
03:26PM 40.0117 -82.7175 195° South 188 216 3,000 -1,260 Descending Indianapolis Center
03:26PM 39.9986 -82.7328 222° Southwest 207 238 2,600 -420 Descending Indianapolis Center
03:27PM 39.9931 -82.7611 256° West 136 157 2,600 -420 Level Indianapolis Center
03:27PM 39.9964 -82.7889 279° West 156 180 2,200 -660 Descending Indianapolis Center
03:28PM 39.9964 -82.8133 270° West 123 142 1,900 -600 Descending Indianapolis Center
03:28PM 39.9994 -82.8353 280° West 139 160 1,600 -660 Descending Indianapolis Center
03:29PM 39.9989 -82.8547 268° West 125 144 1,300 -300 Descending Indianapolis Center
03:29PM 40.0022 -82.8778 281° West 136 157 1,300  Level Indianapolis Center